sensor_id;sensor_type;location;lat;lon;timestamp;P1;durP1;ratioP1;P2;durP2;ratioP2
36599;SDS011;35385;55.668;37.508;2023-09-19T00:00:17;14.87;;;10.53;;
36599;SDS011;35385;55.668;37.508;2023-09-19T00:01:19;18.70;;;11.30;;
36599;SDS011;35385;55.668;37.508;2023-09-19T00:02:20;20.08;;;12.35;;
36599;SDS011;35385;55.668;37.508;2023-09-19T00:03:21;21.10;;;11.13;;
36599;SDS011;35385;55.668;37.508;2023-09-19T00:05:29;18.75;;;11.13;;
36599;SDS011;35385;55.668;37.508;2023-09-19T00:06:30;19.77;;;12.13;;
36599;SDS011;35385;55.668;37.508;2023-09-19T00:07:31;18.35;;;11.90;;
36599;SDS011;35385;55.668;37.508;2023-09-19T00:08:32;15.20;;;11.30;;
36599;SDS011;35385;55.668;37.508;2023-09-19T00:09:33;16.10;;;10.75;;
36599;SDS011;35385;55.668;37.508;2023-09-19T00:10:37;15.02;;;11.35;;
36599;SDS011;35385;55.668;37.508;2023-09-19T00:11:39;17.02;;;12.10;;
36599;SDS011;35385;55.668;37.508;2023-09-19T00:13:43;19.38;;;11.18;;
36599;SDS011;35385;55.668;37.508;2023-09-19T00:14:44;17.87;;;11.23;;
36599;SDS011;35385;55.668;37.508;2023-09-19T00:15:45;16.73;;;11.77;;
36599;SDS011;35385;55.668;37.508;2023-09-19T00:16:50;15.98;;;11.35;;
36599;SDS011;35385;55.668;37.508;2023-09-19T00:17:51;17.00;;;12.10;;
36599;SDS011;35385;55.668;37.508;2023-09-19T00:18:52;18.60;;;11.80;;
36599;SDS011;35385;55.668;37.508;2023-09-19T00:19:53;16.33;;;12.23;;
36599;SDS011;35385;55.668;37.508;2023-09-19T00:20:59;19.13;;;12.53;;
36599;SDS011;35385;55.668;37.508;2023-09-19T00:22:00;19.13;;;12.60;;
36599;SDS011;35385;55.668;37.508;2023-09-19T00:23:01;19.40;;;12.68;;
36599;SDS011;35385;55.668;37.508;2023-09-19T00:24:09;17.17;;;11.52;;
36599;SDS011;35385;55.668;37.508;2023-09-19T00:25:10;15.45;;;12.00;;
36599;SDS011;35385;55.668;37.508;2023-09-19T00:26:12;17.30;;;12.48;;
36599;SDS011;35385;55.668;37.508;2023-09-19T00:27:13;17.48;;;12.27;;
36599;SDS011;35385;55.668;37.508;2023-09-19T00:28:13;15.97;;;11.37;;
36599;SDS011;35385;55.668;37.508;2023-09-19T00:29:15;18.95;;;12.68;;
36599;SDS011;35385;55.668;37.508;2023-09-19T00:30:16;20.57;;;13.13;;
36599;SDS011;35385;55.668;37.508;2023-09-19T00:31:20;18.15;;;12.75;;
36599;SDS011;35385;55.668;37.508;2023-09-19T00:32:25;21.80;;;13.07;;
36599;SDS011;35385;55.668;37.508;2023-09-19T00:33:32;16.20;;;11.77;;
36599;SDS011;35385;55.668;37.508;2023-09-19T00:34:32;18.37;;;12.17;;
36599;SDS011;35385;55.668;37.508;2023-09-19T00:35:34;16.73;;;11.85;;
36599;SDS011;35385;55.668;37.508;2023-09-19T00:36:37;17.23;;;11.48;;
36599;SDS011;35385;55.668;37.508;2023-09-19T00:37:40;16.20;;;11.40;;
36599;SDS011;35385;55.668;37.508;2023-09-19T00:38:41;20.50;;;12.48;;
36599;SDS011;35385;55.668;37.508;2023-09-19T00:39:44;23.70;;;12.82;;
36599;SDS011;35385;55.668;37.508;2023-09-19T00:40:46;17.70;;;12.80;;
36599;SDS011;35385;55.668;37.508;2023-09-19T00:41:48;19.25;;;11.30;;
36599;SDS011;35385;55.668;37.508;2023-09-19T00:42:49;16.95;;;11.82;;
36599;SDS011;35385;55.668;37.508;2023-09-19T00:43:50;18.33;;;12.52;;
36599;SDS011;35385;55.668;37.508;2023-09-19T00:44:51;20.17;;;12.40;;
36599;SDS011;35385;55.668;37.508;2023-09-19T00:45:52;19.90;;;13.60;;
36599;SDS011;35385;55.668;37.508;2023-09-19T00:46:54;22.30;;;15.18;;
36599;SDS011;35385;55.668;37.508;2023-09-19T00:47:54;24.70;;;14.37;;
36599;SDS011;35385;55.668;37.508;2023-09-19T00:48:56;18.90;;;14.63;;
36599;SDS011;35385;55.668;37.508;2023-09-19T00:49:57;22.83;;;14.03;;
36599;SDS011;35385;55.668;37.508;2023-09-19T00:50:59;22.45;;;14.63;;
36599;SDS011;35385;55.668;37.508;2023-09-19T00:52:04;21.95;;;14.65;;
36599;SDS011;35385;55.668;37.508;2023-09-19T00:53:05;23.48;;;15.95;;
36599;SDS011;35385;55.668;37.508;2023-09-19T00:54:08;23.30;;;15.65;;
36599;SDS011;35385;55.668;37.508;2023-09-19T00:55:09;25.00;;;15.50;;
36599;SDS011;35385;55.668;37.508;2023-09-19T00:56:12;27.48;;;16.85;;
36599;SDS011;35385;55.668;37.508;2023-09-19T00:57:13;26.58;;;16.65;;
36599;SDS011;35385;55.668;37.508;2023-09-19T00:58:19;22.73;;;15.93;;
36599;SDS011;35385;55.668;37.508;2023-09-19T00:59:20;25.35;;;16.85;;
36599;SDS011;35385;55.668;37.508;2023-09-19T01:00:22;26.80;;;17.67;;
36599;SDS011;35385;55.668;37.508;2023-09-19T01:01:23;32.13;;;18.60;;
36599;SDS011;35385;55.668;37.508;2023-09-19T01:02:25;29.40;;;19.63;;
36599;SDS011;35385;55.668;37.508;2023-09-19T01:03:30;31.80;;;20.98;;
36599;SDS011;35385;55.668;37.508;2023-09-19T01:04:30;31.25;;;21.63;;
36599;SDS011;35385;55.668;37.508;2023-09-19T01:05:31;33.47;;;21.70;;
36599;SDS011;35385;55.668;37.508;2023-09-19T01:06:32;35.63;;;21.20;;
36599;SDS011;35385;55.668;37.508;2023-09-19T01:07:32;33.80;;;21.83;;
36599;SDS011;35385;55.668;37.508;2023-09-19T01:08:36;33.38;;;21.90;;
36599;SDS011;35385;55.668;37.508;2023-09-19T01:09:36;37.67;;;22.73;;
36599;SDS011;35385;55.668;37.508;2023-09-19T01:11:01;34.97;;;22.15;;
36599;SDS011;35385;55.668;37.508;2023-09-19T01:12:04;34.72;;;22.00;;
36599;SDS011;35385;55.668;37.508;2023-09-19T01:13:11;36.20;;;22.65;;
36599;SDS011;35385;55.668;37.508;2023-09-19T01:16:03;35.35;;;24.15;;
36599;SDS011;35385;55.668;37.508;2023-09-19T01:18:43;34.75;;;24.10;;
36599;SDS011;35385;55.668;37.508;2023-09-19T01:21:35;34.45;;;22.90;;
36599;SDS011;35385;55.668;37.508;2023-09-19T01:22:46;32.25;;;23.25;;
36599;SDS011;35385;55.668;37.508;2023-09-19T01:29:33;32.58;;;22.35;;
36599;SDS011;35385;55.668;37.508;2023-09-19T01:30:43;32.05;;;21.48;;
36599;SDS011;35385;55.668;37.508;2023-09-19T01:31:44;32.30;;;21.60;;
36599;SDS011;35385;55.668;37.508;2023-09-19T01:32:46;39.03;;;23.95;;
36599;SDS011;35385;55.668;37.508;2023-09-19T01:35:01;28.25;;;20.77;;
36599;SDS011;35385;55.668;37.508;2023-09-19T01:36:05;35.53;;;23.17;;
36599;SDS011;35385;55.668;37.508;2023-09-19T01:37:09;29.10;;;21.30;;
36599;SDS011;35385;55.668;37.508;2023-09-19T01:38:09;31.50;;;21.67;;
36599;SDS011;35385;55.668;37.508;2023-09-19T01:39:11;28.63;;;21.50;;
36599;SDS011;35385;55.668;37.508;2023-09-19T01:40:15;30.00;;;21.33;;
36599;SDS011;35385;55.668;37.508;2023-09-19T01:41:19;29.40;;;20.55;;
36599;SDS011;35385;55.668;37.508;2023-09-19T01:42:37;27.35;;;21.15;;
36599;SDS011;35385;55.668;37.508;2023-09-19T01:43:45;27.25;;;20.60;;
36599;SDS011;35385;55.668;37.508;2023-09-19T01:46:38;27.67;;;21.33;;
36599;SDS011;35385;55.668;37.508;2023-09-19T01:48:19;30.88;;;20.92;;
36599;SDS011;35385;55.668;37.508;2023-09-19T01:53:05;30.23;;;23.63;;
36599;SDS011;35385;55.668;37.508;2023-09-19T01:54:16;33.20;;;24.42;;
36599;SDS011;35385;55.668;37.508;2023-09-19T01:55:25;40.05;;;25.48;;
36599;SDS011;35385;55.668;37.508;2023-09-19T01:56:29;34.78;;;23.60;;
36599;SDS011;35385;55.668;37.508;2023-09-19T01:57:41;31.02;;;24.33;;
36599;SDS011;35385;55.668;37.508;2023-09-19T01:59:06;34.70;;;23.95;;
36599;SDS011;35385;55.668;37.508;2023-09-19T02:00:11;33.22;;;25.35;;
36599;SDS011;35385;55.668;37.508;2023-09-19T02:01:15;31.42;;;26.00;;
36599;SDS011;35385;55.668;37.508;2023-09-19T02:02:21;35.05;;;26.35;;
36599;SDS011;35385;55.668;37.508;2023-09-19T02:03:23;36.92;;;27.42;;
36599;SDS011;35385;55.668;37.508;2023-09-19T02:04:25;37.70;;;25.20;;
36599;SDS011;35385;55.668;37.508;2023-09-19T02:06:27;39.72;;;25.92;;
36599;SDS011;35385;55.668;37.508;2023-09-19T02:07:28;37.43;;;26.30;;
36599;SDS011;35385;55.668;37.508;2023-09-19T02:08:31;39.20;;;27.33;;
36599;SDS011;35385;55.668;37.508;2023-09-19T02:09:34;36.75;;;26.42;;
36599;SDS011;35385;55.668;37.508;2023-09-19T02:10:35;39.40;;;28.33;;
36599;SDS011;35385;55.668;37.508;2023-09-19T02:11:36;39.33;;;27.30;;
36599;SDS011;35385;55.668;37.508;2023-09-19T02:12:37;37.38;;;28.15;;
36599;SDS011;35385;55.668;37.508;2023-09-19T02:13:39;39.03;;;28.20;;
36599;SDS011;35385;55.668;37.508;2023-09-19T02:14:41;43.83;;;30.40;;
36599;SDS011;35385;55.668;37.508;2023-09-19T02:15:41;36.93;;;29.47;;
36599;SDS011;35385;55.668;37.508;2023-09-19T02:16:44;39.17;;;30.42;;
36599;SDS011;35385;55.668;37.508;2023-09-19T02:17:45;40.67;;;30.63;;
36599;SDS011;35385;55.668;37.508;2023-09-19T02:18:48;42.10;;;29.80;;
36599;SDS011;35385;55.668;37.508;2023-09-19T02:19:53;38.65;;;29.80;;
36599;SDS011;35385;55.668;37.508;2023-09-19T02:20:55;42.00;;;32.00;;
36599;SDS011;35385;55.668;37.508;2023-09-19T02:21:56;44.42;;;31.65;;
36599;SDS011;35385;55.668;37.508;2023-09-19T02:22:57;42.60;;;31.50;;
36599;SDS011;35385;55.668;37.508;2023-09-19T02:24:17;42.25;;;30.38;;
36599;SDS011;35385;55.668;37.508;2023-09-19T02:25:19;44.45;;;31.95;;
36599;SDS011;35385;55.668;37.508;2023-09-19T02:26:19;47.53;;;34.13;;
36599;SDS011;35385;55.668;37.508;2023-09-19T02:27:20;47.40;;;34.42;;
36599;SDS011;35385;55.668;37.508;2023-09-19T02:28:21;45.37;;;31.90;;
36599;SDS011;35385;55.668;37.508;2023-09-19T02:29:22;44.13;;;32.15;;
36599;SDS011;35385;55.668;37.508;2023-09-19T02:30:23;43.77;;;31.30;;
36599;SDS011;35385;55.668;37.508;2023-09-19T02:31:26;46.13;;;33.65;;
36599;SDS011;35385;55.668;37.508;2023-09-19T02:32:29;44.88;;;32.95;;
36599;SDS011;35385;55.668;37.508;2023-09-19T02:34:36;43.55;;;33.85;;
36599;SDS011;35385;55.668;37.508;2023-09-19T02:35:36;47.55;;;34.83;;
36599;SDS011;35385;55.668;37.508;2023-09-19T02:36:38;46.50;;;34.50;;
36599;SDS011;35385;55.668;37.508;2023-09-19T02:37:38;47.17;;;35.03;;
36599;SDS011;35385;55.668;37.508;2023-09-19T02:38:39;50.37;;;34.40;;
36599;SDS011;35385;55.668;37.508;2023-09-19T02:39:40;48.67;;;34.17;;
36599;SDS011;35385;55.668;37.508;2023-09-19T02:40:41;48.77;;;31.87;;
36599;SDS011;35385;55.668;37.508;2023-09-19T02:41:43;46.22;;;33.38;;
36599;SDS011;35385;55.668;37.508;2023-09-19T02:42:47;41.67;;;33.07;;
36599;SDS011;35385;55.668;37.508;2023-09-19T02:43:49;46.25;;;32.80;;
36599;SDS011;35385;55.668;37.508;2023-09-19T02:44:50;42.97;;;32.20;;
36599;SDS011;35385;55.668;37.508;2023-09-19T02:45:51;51.50;;;33.67;;
36599;SDS011;35385;55.668;37.508;2023-09-19T02:46:55;45.50;;;32.60;;
36599;SDS011;35385;55.668;37.508;2023-09-19T02:47:57;45.42;;;31.77;;
36599;SDS011;35385;55.668;37.508;2023-09-19T02:48:58;43.37;;;31.33;;
36599;SDS011;35385;55.668;37.508;2023-09-19T02:49:58;42.20;;;32.27;;
36599;SDS011;35385;55.668;37.508;2023-09-19T02:50:59;44.57;;;32.60;;
36599;SDS011;35385;55.668;37.508;2023-09-19T02:52:00;44.85;;;32.58;;
36599;SDS011;35385;55.668;37.508;2023-09-19T02:53:01;44.77;;;32.07;;
36599;SDS011;35385;55.668;37.508;2023-09-19T02:54:01;47.67;;;34.47;;
36599;SDS011;35385;55.668;37.508;2023-09-19T02:55:05;42.90;;;32.78;;
36599;SDS011;35385;55.668;37.508;2023-09-19T02:56:09;52.83;;;34.53;;
36599;SDS011;35385;55.668;37.508;2023-09-19T02:57:12;48.33;;;35.13;;
36599;SDS011;35385;55.668;37.508;2023-09-19T02:58:14;51.60;;;36.22;;
36599;SDS011;35385;55.668;37.508;2023-09-19T02:59:14;53.83;;;36.10;;
36599;SDS011;35385;55.668;37.508;2023-09-19T03:00:16;51.97;;;36.42;;
36599;SDS011;35385;55.668;37.508;2023-09-19T03:01:21;52.08;;;37.40;;
36599;SDS011;35385;55.668;37.508;2023-09-19T03:02:22;54.80;;;38.17;;
36599;SDS011;35385;55.668;37.508;2023-09-19T03:03:24;52.53;;;37.15;;
36599;SDS011;35385;55.668;37.508;2023-09-19T03:04:25;53.40;;;35.83;;
36599;SDS011;35385;55.668;37.508;2023-09-19T03:05:27;53.70;;;37.28;;
36599;SDS011;35385;55.668;37.508;2023-09-19T03:06:31;49.50;;;36.15;;
36599;SDS011;35385;55.668;37.508;2023-09-19T03:07:31;52.73;;;36.53;;
36599;SDS011;35385;55.668;37.508;2023-09-19T03:08:32;57.20;;;36.33;;
36599;SDS011;35385;55.668;37.508;2023-09-19T03:09:35;54.90;;;37.08;;
36599;SDS011;35385;55.668;37.508;2023-09-19T03:10:36;60.50;;;38.97;;
36599;SDS011;35385;55.668;37.508;2023-09-19T03:11:38;50.28;;;35.45;;
36599;SDS011;35385;55.668;37.508;2023-09-19T03:12:40;54.05;;;36.17;;
36599;SDS011;35385;55.668;37.508;2023-09-19T03:13:42;53.67;;;36.58;;
36599;SDS011;35385;55.668;37.508;2023-09-19T03:14:45;60.97;;;37.80;;
36599;SDS011;35385;55.668;37.508;2023-09-19T03:15:45;57.27;;;36.90;;
36599;SDS011;35385;55.668;37.508;2023-09-19T03:16:50;53.50;;;35.95;;
36599;SDS011;35385;55.668;37.508;2023-09-19T03:18:53;54.13;;;36.22;;
36599;SDS011;35385;55.668;37.508;2023-09-19T03:19:54;58.07;;;36.70;;
36599;SDS011;35385;55.668;37.508;2023-09-19T03:20:55;58.83;;;37.10;;
36599;SDS011;35385;55.668;37.508;2023-09-19T03:21:56;62.17;;;37.33;;
36599;SDS011;35385;55.668;37.508;2023-09-19T03:22:57;61.47;;;38.03;;
36599;SDS011;35385;55.668;37.508;2023-09-19T03:23:58;61.73;;;37.87;;
36599;SDS011;35385;55.668;37.508;2023-09-19T03:24:59;62.40;;;37.43;;
36599;SDS011;35385;55.668;37.508;2023-09-19T03:27:01;67.55;;;38.63;;
36599;SDS011;35385;55.668;37.508;2023-09-19T03:28:02;64.43;;;38.97;;
36599;SDS011;35385;55.668;37.508;2023-09-19T03:29:06;64.47;;;38.00;;
36599;SDS011;35385;55.668;37.508;2023-09-19T03:30:07;61.87;;;38.50;;
36599;SDS011;35385;55.668;37.508;2023-09-19T03:31:13;63.95;;;38.88;;
36599;SDS011;35385;55.668;37.508;2023-09-19T03:32:13;64.00;;;39.27;;
36599;SDS011;35385;55.668;37.508;2023-09-19T03:33:14;58.90;;;37.90;;
36599;SDS011;35385;55.668;37.508;2023-09-19T03:34:15;60.73;;;36.50;;
36599;SDS011;35385;55.668;37.508;2023-09-19T03:35:16;61.75;;;36.42;;
36599;SDS011;35385;55.668;37.508;2023-09-19T03:37:18;59.13;;;35.17;;
36599;SDS011;35385;55.668;37.508;2023-09-19T03:38:19;61.38;;;36.25;;
36599;SDS011;35385;55.668;37.508;2023-09-19T03:39:21;59.75;;;37.67;;
36599;SDS011;35385;55.668;37.508;2023-09-19T03:40:22;68.85;;;38.42;;
36599;SDS011;35385;55.668;37.508;2023-09-19T03:41:23;61.22;;;37.03;;
36599;SDS011;35385;55.668;37.508;2023-09-19T03:42:24;60.23;;;36.73;;
36599;SDS011;35385;55.668;37.508;2023-09-19T03:43:25;61.67;;;37.28;;
36599;SDS011;35385;55.668;37.508;2023-09-19T03:44:26;62.90;;;38.00;;
36599;SDS011;35385;55.668;37.508;2023-09-19T03:45:26;60.63;;;37.73;;
36599;SDS011;35385;55.668;37.508;2023-09-19T03:46:28;66.32;;;38.20;;
36599;SDS011;35385;55.668;37.508;2023-09-19T03:47:28;65.97;;;40.67;;
36599;SDS011;35385;55.668;37.508;2023-09-19T03:48:29;59.27;;;37.20;;
36599;SDS011;35385;55.668;37.508;2023-09-19T03:49:30;65.63;;;39.93;;
36599;SDS011;35385;55.668;37.508;2023-09-19T03:50:31;62.38;;;38.38;;
36599;SDS011;35385;55.668;37.508;2023-09-19T03:51:33;67.47;;;41.38;;
36599;SDS011;35385;55.668;37.508;2023-09-19T03:52:34;62.33;;;38.20;;
36599;SDS011;35385;55.668;37.508;2023-09-19T03:53:35;63.80;;;40.40;;
36599;SDS011;35385;55.668;37.508;2023-09-19T03:54:35;64.80;;;39.90;;
36599;SDS011;35385;55.668;37.508;2023-09-19T03:55:36;72.90;;;42.00;;
36599;SDS011;35385;55.668;37.508;2023-09-19T03:56:38;68.18;;;41.25;;
36599;SDS011;35385;55.668;37.508;2023-09-19T03:57:39;71.37;;;41.17;;
36599;SDS011;35385;55.668;37.508;2023-09-19T03:58:40;70.50;;;41.43;;
36599;SDS011;35385;55.668;37.508;2023-09-19T03:59:40;64.40;;;41.13;;
36599;SDS011;35385;55.668;37.508;2023-09-19T04:00:42;64.25;;;39.38;;
36599;SDS011;35385;55.668;37.508;2023-09-19T04:01:43;67.03;;;40.83;;
36599;SDS011;35385;55.668;37.508;2023-09-19T04:02:43;70.53;;;41.10;;
36599;SDS011;35385;55.668;37.508;2023-09-19T04:03:46;66.40;;;40.13;;
36599;SDS011;35385;55.668;37.508;2023-09-19T04:04:48;67.40;;;41.70;;
36599;SDS011;35385;55.668;37.508;2023-09-19T04:05:48;65.90;;;40.22;;
36599;SDS011;35385;55.668;37.508;2023-09-19T04:06:49;67.17;;;40.67;;
36599;SDS011;35385;55.668;37.508;2023-09-19T04:07:50;67.50;;;39.50;;
36599;SDS011;35385;55.668;37.508;2023-09-19T04:08:50;65.63;;;39.63;;
36599;SDS011;35385;55.668;37.508;2023-09-19T04:09:51;69.63;;;42.53;;
36599;SDS011;35385;55.668;37.508;2023-09-19T04:10:55;63.35;;;39.75;;
36599;SDS011;35385;55.668;37.508;2023-09-19T04:11:56;68.47;;;41.47;;
36599;SDS011;35385;55.668;37.508;2023-09-19T04:12:57;65.43;;;40.17;;
36599;SDS011;35385;55.668;37.508;2023-09-19T04:13:58;70.83;;;40.40;;
36599;SDS011;35385;55.668;37.508;2023-09-19T04:14:59;68.78;;;40.55;;
36599;SDS011;35385;55.668;37.508;2023-09-19T04:15:59;67.97;;;39.87;;
36599;SDS011;35385;55.668;37.508;2023-09-19T04:17:00;68.00;;;41.07;;
36599;SDS011;35385;55.668;37.508;2023-09-19T04:18:00;68.37;;;39.40;;
36599;SDS011;35385;55.668;37.508;2023-09-19T04:19:03;60.50;;;37.42;;
36599;SDS011;35385;55.668;37.508;2023-09-19T04:20:04;69.47;;;39.83;;
36599;SDS011;35385;55.668;37.508;2023-09-19T04:21:06;73.05;;;38.08;;
36599;SDS011;35385;55.668;37.508;2023-09-19T04:22:07;72.53;;;37.67;;
36599;SDS011;35385;55.668;37.508;2023-09-19T04:24:09;59.53;;;35.40;;
36599;SDS011;35385;55.668;37.508;2023-09-19T04:25:10;65.97;;;36.03;;
36599;SDS011;35385;55.668;37.508;2023-09-19T04:26:11;65.57;;;36.87;;
36599;SDS011;35385;55.668;37.508;2023-09-19T04:27:12;62.85;;;35.25;;
36599;SDS011;35385;55.668;37.508;2023-09-19T04:28:14;58.80;;;32.78;;
36599;SDS011;35385;55.668;37.508;2023-09-19T04:29:15;67.05;;;33.97;;
36599;SDS011;35385;55.668;37.508;2023-09-19T04:30:16;67.47;;;34.83;;
36599;SDS011;35385;55.668;37.508;2023-09-19T04:31:16;62.33;;;34.43;;
36599;SDS011;35385;55.668;37.508;2023-09-19T04:32:18;64.53;;;34.67;;
36599;SDS011;35385;55.668;37.508;2023-09-19T04:33:19;58.73;;;33.37;;
36599;SDS011;35385;55.668;37.508;2023-09-19T04:34:19;64.30;;;34.40;;
36599;SDS011;35385;55.668;37.508;2023-09-19T04:35:20;65.37;;;34.20;;
36599;SDS011;35385;55.668;37.508;2023-09-19T04:36:21;61.37;;;34.40;;
36599;SDS011;35385;55.668;37.508;2023-09-19T04:37:23;58.65;;;32.00;;
36599;SDS011;35385;55.668;37.508;2023-09-19T04:38:23;66.17;;;33.67;;
36599;SDS011;35385;55.668;37.508;2023-09-19T04:39:24;60.47;;;33.90;;
36599;SDS011;35385;55.668;37.508;2023-09-19T04:40:25;57.65;;;31.65;;
36599;SDS011;35385;55.668;37.508;2023-09-19T04:41:27;59.65;;;32.33;;
36599;SDS011;35385;55.668;37.508;2023-09-19T04:42:27;54.33;;;30.47;;
36599;SDS011;35385;55.668;37.508;2023-09-19T04:43:30;50.17;;;29.70;;
36599;SDS011;35385;55.668;37.508;2023-09-19T04:44:31;58.57;;;31.57;;
36599;SDS011;35385;55.668;37.508;2023-09-19T04:45:31;60.00;;;29.40;;
36599;SDS011;35385;55.668;37.508;2023-09-19T04:46:32;54.87;;;28.60;;
36599;SDS011;35385;55.668;37.508;2023-09-19T04:47:33;56.33;;;30.20;;
36599;SDS011;35385;55.668;37.508;2023-09-19T04:48:33;53.03;;;30.83;;
36599;SDS011;35385;55.668;37.508;2023-09-19T04:49:34;54.97;;;29.20;;
36599;SDS011;35385;55.668;37.508;2023-09-19T04:50:35;56.83;;;29.00;;
36599;SDS011;35385;55.668;37.508;2023-09-19T04:51:37;48.17;;;27.25;;
36599;SDS011;35385;55.668;37.508;2023-09-19T04:52:40;48.70;;;27.73;;
36599;SDS011;35385;55.668;37.508;2023-09-19T04:53:45;50.97;;;26.88;;
36599;SDS011;35385;55.668;37.508;2023-09-19T04:54:45;40.37;;;25.03;;
36599;SDS011;35385;55.668;37.508;2023-09-19T04:55:52;46.30;;;26.10;;
36599;SDS011;35385;55.668;37.508;2023-09-19T04:56:52;45.28;;;25.80;;
36599;SDS011;35385;55.668;37.508;2023-09-19T04:57:53;43.53;;;25.30;;
36599;SDS011;35385;55.668;37.508;2023-09-19T04:59:55;44.92;;;25.50;;
36599;SDS011;35385;55.668;37.508;2023-09-19T05:00:56;41.73;;;24.67;;
36599;SDS011;35385;55.668;37.508;2023-09-19T05:01:56;39.00;;;23.87;;
36599;SDS011;35385;55.668;37.508;2023-09-19T05:02:57;45.60;;;26.13;;
36599;SDS011;35385;55.668;37.508;2023-09-19T05:03:57;39.13;;;24.23;;
36599;SDS011;35385;55.668;37.508;2023-09-19T05:04:58;39.00;;;24.10;;
36599;SDS011;35385;55.668;37.508;2023-09-19T05:06:00;41.88;;;25.25;;
36599;SDS011;35385;55.668;37.508;2023-09-19T05:07:01;40.90;;;24.07;;
36599;SDS011;35385;55.668;37.508;2023-09-19T05:08:03;41.35;;;24.80;;
36599;SDS011;35385;55.668;37.508;2023-09-19T05:10:06;39.80;;;23.10;;
36599;SDS011;35385;55.668;37.508;2023-09-19T05:11:07;39.95;;;23.60;;
36599;SDS011;35385;55.668;37.508;2023-09-19T05:13:10;37.83;;;23.30;;
36599;SDS011;35385;55.668;37.508;2023-09-19T05:15:13;37.28;;;22.20;;
36599;SDS011;35385;55.668;37.508;2023-09-19T05:16:20;39.97;;;22.33;;
36599;SDS011;35385;55.668;37.508;2023-09-19T05:17:21;35.93;;;21.83;;
36599;SDS011;35385;55.668;37.508;2023-09-19T05:18:21;34.40;;;22.40;;
36599;SDS011;35385;55.668;37.508;2023-09-19T05:19:22;41.70;;;22.83;;
36599;SDS011;35385;55.668;37.508;2023-09-19T05:20:22;38.93;;;23.30;;
36599;SDS011;35385;55.668;37.508;2023-09-19T05:21:32;35.35;;;21.77;;
36599;SDS011;35385;55.668;37.508;2023-09-19T05:22:33;32.35;;;21.58;;
36599;SDS011;35385;55.668;37.508;2023-09-19T05:23:34;37.27;;;22.10;;
36599;SDS011;35385;55.668;37.508;2023-09-19T05:24:35;30.37;;;20.67;;
36599;SDS011;35385;55.668;37.508;2023-09-19T05:25:36;34.20;;;20.80;;
36599;SDS011;35385;55.668;37.508;2023-09-19T05:26:38;35.67;;;22.55;;
36599;SDS011;35385;55.668;37.508;2023-09-19T05:27:40;29.17;;;21.10;;
36599;SDS011;35385;55.668;37.508;2023-09-19T05:28:40;30.90;;;20.27;;
36599;SDS011;35385;55.668;37.508;2023-09-19T05:29:41;35.03;;;20.77;;
36599;SDS011;35385;55.668;37.508;2023-09-19T05:30:42;33.35;;;21.75;;
36599;SDS011;35385;55.668;37.508;2023-09-19T05:31:46;27.63;;;20.60;;
36599;SDS011;35385;55.668;37.508;2023-09-19T05:32:46;36.00;;;20.27;;
36599;SDS011;35385;55.668;37.508;2023-09-19T05:33:47;30.60;;;20.80;;
36599;SDS011;35385;55.668;37.508;2023-09-19T05:34:48;29.17;;;19.80;;
36599;SDS011;35385;55.668;37.508;2023-09-19T05:35:48;29.30;;;19.50;;
36599;SDS011;35385;55.668;37.508;2023-09-19T05:36:49;27.25;;;18.48;;
36599;SDS011;35385;55.668;37.508;2023-09-19T05:37:50;31.40;;;19.77;;
36599;SDS011;35385;55.668;37.508;2023-09-19T05:39:53;27.45;;;18.48;;
36599;SDS011;35385;55.668;37.508;2023-09-19T05:40:57;23.65;;;17.83;;
36599;SDS011;35385;55.668;37.508;2023-09-19T05:41:58;28.63;;;18.87;;
36599;SDS011;35385;55.668;37.508;2023-09-19T05:43:00;29.52;;;18.52;;
36599;SDS011;35385;55.668;37.508;2023-09-19T05:44:02;24.60;;;17.67;;
36599;SDS011;35385;55.668;37.508;2023-09-19T05:45:03;25.48;;;18.02;;
36599;SDS011;35385;55.668;37.508;2023-09-19T05:46:06;26.40;;;17.15;;
36599;SDS011;35385;55.668;37.508;2023-09-19T05:47:08;25.88;;;17.30;;
36599;SDS011;35385;55.668;37.508;2023-09-19T05:49:15;21.98;;;16.45;;
36599;SDS011;35385;55.668;37.508;2023-09-19T05:50:16;23.50;;;16.10;;
36599;SDS011;35385;55.668;37.508;2023-09-19T05:51:18;22.95;;;17.33;;
36599;SDS011;35385;55.668;37.508;2023-09-19T05:52:19;25.40;;;16.63;;
36599;SDS011;35385;55.668;37.508;2023-09-19T05:53:20;22.93;;;17.17;;
36599;SDS011;35385;55.668;37.508;2023-09-19T05:54:20;26.07;;;17.00;;
36599;SDS011;35385;55.668;37.508;2023-09-19T05:55:21;25.37;;;16.80;;
36599;SDS011;35385;55.668;37.508;2023-09-19T05:56:25;26.92;;;16.83;;
36599;SDS011;35385;55.668;37.508;2023-09-19T05:57:25;23.97;;;16.33;;
36599;SDS011;35385;55.668;37.508;2023-09-19T05:58:26;23.13;;;16.33;;
36599;SDS011;35385;55.668;37.508;2023-09-19T05:59:27;22.10;;;16.23;;
36599;SDS011;35385;55.668;37.508;2023-09-19T06:00:27;25.90;;;15.95;;
36599;SDS011;35385;55.668;37.508;2023-09-19T06:01:29;23.05;;;16.23;;
36599;SDS011;35385;55.668;37.508;2023-09-19T06:02:32;26.73;;;16.95;;
36599;SDS011;35385;55.668;37.508;2023-09-19T06:03:33;30.33;;;20.75;;
36599;SDS011;35385;55.668;37.508;2023-09-19T06:04:35;26.63;;;16.52;;
36599;SDS011;35385;55.668;37.508;2023-09-19T06:05:41;22.38;;;16.75;;
36599;SDS011;35385;55.668;37.508;2023-09-19T06:06:59;22.08;;;16.25;;
36599;SDS011;35385;55.668;37.508;2023-09-19T06:08:00;24.20;;;16.73;;
36599;SDS011;35385;55.668;37.508;2023-09-19T06:09:01;24.87;;;16.63;;
36599;SDS011;35385;55.668;37.508;2023-09-19T06:10:05;20.27;;;15.05;;
36599;SDS011;35385;55.668;37.508;2023-09-19T06:11:10;21.17;;;15.77;;
36599;SDS011;35385;55.668;37.508;2023-09-19T06:12:11;22.20;;;15.73;;
36599;SDS011;35385;55.668;37.508;2023-09-19T06:13:13;21.70;;;15.18;;
36599;SDS011;35385;55.668;37.508;2023-09-19T06:14:13;24.20;;;15.53;;
36599;SDS011;35385;55.668;37.508;2023-09-19T06:15:15;20.15;;;15.70;;
36599;SDS011;35385;55.668;37.508;2023-09-19T06:16:19;23.33;;;15.48;;
36599;SDS011;35385;55.668;37.508;2023-09-19T06:17:20;24.73;;;16.50;;
36599;SDS011;35385;55.668;37.508;2023-09-19T06:18:22;21.75;;;15.02;;
36599;SDS011;35385;55.668;37.508;2023-09-19T06:19:26;22.13;;;15.90;;
36599;SDS011;35385;55.668;37.508;2023-09-19T06:20:26;22.93;;;15.23;;
36599;SDS011;35385;55.668;37.508;2023-09-19T06:21:27;28.43;;;16.27;;
36599;SDS011;35385;55.668;37.508;2023-09-19T06:22:28;22.43;;;16.27;;
36599;SDS011;35385;55.668;37.508;2023-09-19T06:23:29;21.80;;;15.65;;
36599;SDS011;35385;55.668;37.508;2023-09-19T06:24:30;24.63;;;16.13;;
36599;SDS011;35385;55.668;37.508;2023-09-19T06:25:30;21.75;;;14.70;;
36599;SDS011;35385;55.668;37.508;2023-09-19T06:26:31;21.63;;;15.17;;
36599;SDS011;35385;55.668;37.508;2023-09-19T06:27:32;21.93;;;15.73;;
36599;SDS011;35385;55.668;37.508;2023-09-19T06:28:32;25.97;;;16.43;;
36599;SDS011;35385;55.668;37.508;2023-09-19T06:29:33;24.35;;;15.07;;
36599;SDS011;35385;55.668;37.508;2023-09-19T06:30:34;20.53;;;15.50;;